Time;durP1;ratioP1;P1;durP2;ratioP2;P2;SDS_P1;SDS_P2;PMS_P1;PMS_P2;Temp;Humidity;BMP_temperature;BMP_pressure;BME280_temperature;BME280_humidity;BME280_pressure;Samples;Min_cycle;Max_cycle;Signal;HPM_P1;HPM_P2
2022/06/30 00:00:35;;;;;;;15.07;9.18;;;;;;;20.66;74.69;100884.22;4897403;29;20085;-75
2022/06/30 00:03:01;;;;;;;13.68;8.68;;;;;;;20.64;75.07;100875.44;4899062;29;20065;-72
2022/06/30 00:05:26;;;;;;;13.52;9.00;;;;;;;20.63;75.70;100890.28;4897855;29;20029;-72
2022/06/30 00:07:51;;;;;;;11.57;8.65;;;;;;;20.62;75.91;100882.31;4917178;29;20076;-72
2022/06/30 00:10:17;;;;;;;11.65;9.35;;;;;;;20.56;75.18;100876.06;4918587;29;20122;-72
2022/06/30 00:12:42;;;;;;;11.30;9.20;;;;;;;20.57;75.62;100874.94;4897316;29;20465;-72
2022/06/30 00:15:08;;;;;;;13.63;9.00;;;;;;;20.56;75.39;100876.06;4899991;29;20028;-72
2022/06/30 00:17:34;;;;;;;13.55;9.07;;;;;;;20.52;76.22;100873.06;4899574;29;20029;-73
2022/06/30 00:19:59;;;;;;;15.77;9.40;;;;;;;20.42;75.29;100873.19;4899927;29;20041;-72
2022/06/30 00:22:25;;;;;;;13.82;8.77;;;;;;;20.39;76.80;100867.47;4899520;29;20088;-72
2022/06/30 00:24:51;;;;;;;14.15;9.15;;;;;;;20.35;77.16;100868.03;4899191;29;20121;-73
2022/06/30 00:27:16;;;;;;;10.15;8.95;;;;;;;20.37;76.75;100862.25;4897612;29;20043;-76
2022/06/30 00:29:41;;;;;;;16.13;9.10;;;;;;;20.33;76.97;100856.50;4886373;29;20083;-73
2022/06/30 00:32:07;;;;;;;11.88;8.30;;;;;;;20.33;76.71;100856.50;4918372;29;20103;-74
2022/06/30 00:34:32;;;;;;;11.55;8.18;;;;;;;20.33;76.92;100853.75;4918103;29;20040;-76
2022/06/30 00:36:58;;;;;;;11.18;8.60;;;;;;;20.27;76.38;100851.38;4918163;29;20036;-76
2022/06/30 00:39:23;;;;;;;10.48;8.75;;;;;;;20.28;77.39;100861.25;4900791;29;20535;-74
2022/06/30 00:41:48;;;;;;;12.32;8.35;;;;;;;20.17;77.57;100864.09;4900864;29;20083;-76
2022/06/30 00:44:14;;;;;;;11.88;9.25;;;;;;;20.11;79.01;100861.66;4882019;29;20477;-79
2022/06/30 00:46:40;;;;;;;13.63;9.15;;;;;;;19.99;78.89;100865.63;4898596;29;20032;-73
2022/06/30 00:49:06;;;;;;;12.90;8.70;;;;;;;19.95;79.36;100869.25;4899056;29;20064;-72
2022/06/30 00:51:32;;;;;;;13.05;8.45;;;;;;;19.94;78.42;100862.09;4897137;29;20047;-71
2022/06/30 00:54:00;;;;;;;13.02;8.52;;;;;;;19.94;79.32;100867.59;4898532;29;20048;-76
2022/06/30 00:56:27;;;;;;;12.55;8.57;;;;;;;19.90;79.81;100870.09;4898507;29;20496;-75
2022/06/30 00:58:55;;;;;;;11.77;8.65;;;;;;;19.82;81.17;100867.97;4897638;29;20088;-73
2022/06/30 01:01:23;;;;;;;10.25;8.80;;;;;;;19.82;81.20;100870.72;4895373;29;20103;-76
2022/06/30 01:03:50;;;;;;;12.23;8.93;;;;;;;19.79;81.89;100866.63;4898130;29;20121;-74
2022/06/30 01:06:17;;;;;;;11.75;8.73;;;;;;;19.70;81.87;100872.97;4897152;29;20040;-76
2022/06/30 01:08:42;;;;;;;10.82;8.60;;;;;;;19.70;82.35;100867.47;4898551;29;20089;-77
2022/06/30 01:13:51;;;;;;;13.25;9.07;;;;;;;19.62;83.73;100861.50;4895849;29;20055;-74
2022/06/30 01:16:19;;;;;;;12.70;8.82;;;;;;;19.61;83.62;100864.50;4898524;29;20040;-78
2022/06/30 01:18:45;;;;;;;13.82;8.57;;;;;;;19.49;85.59;100873.13;4898203;29;20035;-74
2022/06/30 01:21:10;;;;;;;12.93;8.35;;;;;;;19.55;83.35;100861.00;4898473;29;20029;-73
2022/06/30 01:23:35;;;;;;;13.57;8.70;;;;;;;19.45;85.59;100870.13;4898436;29;20373;-74
2022/06/30 01:26:01;;;;;;;11.35;8.52;;;;;;;19.37;85.65;100869.88;4898123;29;20028;-75
2022/06/30 01:28:26;;;;;;;15.60;8.60;;;;;;;19.41;85.75;100870.97;4897622;29;20056;-75
2022/06/30 01:30:52;;;;;;;10.93;8.50;;;;;;;19.37;86.48;100869.88;4898019;29;20131;-78
2022/06/30 01:33:17;;;;;;;9.60;8.43;;;;;;;19.29;87.61;100874.91;4898209;29;20029;-78
2022/06/30 01:35:42;;;;;;;12.10;8.55;;;;;;;19.27;87.62;100871.59;4896127;29;20033;-72
2022/06/30 01:38:08;;;;;;;14.15;8.90;;;;;;;19.19;88.58;100863.13;4898228;29;20457;-74
2022/06/30 01:40:35;;;;;;;10.30;8.45;;;;;;;19.19;88.96;100877.69;4898104;29;20080;-72
2022/06/30 01:43:02;;;;;;;12.40;8.27;;;;;;;19.17;89.56;100873.56;4896973;29;20045;-74
2022/06/30 01:45:28;;;;;;;11.40;7.88;;;;;;;19.10;89.65;100865.66;4881211;29;20051;-72
2022/06/30 01:47:53;;;;;;;11.68;8.15;;;;;;;19.17;89.87;100874.38;4896350;29;20051;-74
2022/06/30 01:50:24;;;;;;;9.75;7.57;;;;;;;19.17;89.92;100876.31;4908423;29;20054;-71
2022/06/30 01:52:50;;;;;;;10.75;7.68;;;;;;;19.05;90.03;100871.16;4900084;29;20052;-72
2022/06/30 01:55:15;;;;;;;12.80;7.80;;;;;;;19.08;90.08;100884.31;4898021;29;20527;-73
2022/06/30 01:57:41;;;;;;;9.88;7.65;;;;;;;19.02;91.59;100869.81;4894646;29;20578;-79
2022/06/30 02:00:10;;;;;;;9.20;7.90;;;;;;;19.00;91.72;100872.00;4879262;29;20084;-77
2022/06/30 02:02:35;;;;;;;10.95;8.00;;;;;;;19.00;91.98;100876.69;4891266;29;20059;-75
2022/06/30 02:05:01;;;;;;;10.32;7.70;;;;;;;18.97;91.58;100867.09;4897848;29;20052;-76
2022/06/30 02:07:26;;;;;;;11.23;8.18;;;;;;;18.93;91.55;100871.47;4896245;29;20406;-71
2022/06/30 02:09:52;;;;;;;12.35;7.75;;;;;;;18.90;92.27;100869.31;4879734;29;20048;-80
2022/06/30 02:15:04;;;;;;;10.48;7.85;;;;;;;18.86;91.34;100887.44;4880710;29;20115;-79
2022/06/30 02:17:29;;;;;;;10.48;7.93;;;;;;;18.79;91.74;100890.44;4916452;29;20035;-79
2022/06/30 02:19:55;;;;;;;11.25;7.28;;;;;;;18.76;91.32;100880.03;4907587;29;20453;-78
2022/06/30 02:22:20;;;;;;;9.32;7.50;;;;;;;18.71;92.57;100877.31;4897833;29;20043;-79
2022/06/30 02:24:45;;;;;;;8.20;7.28;;;;;;;18.74;91.65;100891.28;4881124;29;20025;-79
2022/06/30 02:27:11;;;;;;;12.07;7.70;;;;;;;18.73;92.49;100883.31;4897986;29;20033;-76
2022/06/30 02:29:36;;;;;;;9.50;8.07;;;;;;;18.73;90.60;100897.84;4880301;29;20067;-73
2022/06/30 02:32:02;;;;;;;12.13;8.15;;;;;;;18.68;89.75;100903.34;4896048;29;20035;-79
2022/06/30 02:34:28;;;;;;;12.50;7.60;;;;;;;18.68;90.94;100892.38;4876711;29;20040;-74
2022/06/30 02:36:54;;;;;;;11.30;8.02;;;;;;;18.72;92.66;100890.72;4895105;29;20036;-73
2022/06/30 02:39:19;;;;;;;11.82;7.97;;;;;;;18.71;91.79;100891.81;4880541;29;20035;-74
2022/06/30 02:41:45;;;;;;;10.90;7.63;;;;;;;18.72;91.46;100890.72;4897173;29;20029;-74
2022/06/30 02:44:10;;;;;;;8.52;7.40;;;;;;;18.64;92.09;100885.00;4897127;29;20028;-76
2022/06/30 02:46:35;;;;;;;9.65;7.80;;;;;;;18.66;92.48;100889.13;4897062;29;20032;-74
2022/06/30 02:49:01;;;;;;;12.60;8.27;;;;;;;18.64;92.34;100885.81;4877156;29;20059;-69
2022/06/30 02:51:26;;;;;;;11.25;8.05;;;;;;;18.56;91.86;100889.94;4888819;29;20460;-72
2022/06/30 02:53:51;;;;;;;10.05;7.60;;;;;;;18.55;93.32;100882.81;4895183;29;20024;-73
2022/06/30 02:56:17;;;;;;;10.45;8.10;;;;;;;18.55;92.32;100877.34;4897234;29;20412;-75
2022/06/30 02:58:43;;;;;;;11.50;8.27;;;;;;;18.51;93.24;100884.50;4893532;29;20395;-71
2022/06/30 03:01:08;;;;;;;11.13;8.30;;;;;;;18.44;93.50;100877.66;4905197;29;20056;-73
2022/06/30 03:03:33;;;;;;;13.48;8.02;;;;;;;18.47;93.94;100877.09;4880530;29;20448;-72
2022/06/30 03:05:59;;;;;;;12.95;8.07;;;;;;;18.41;94.11;100873.53;4897092;29;20120;-71
2022/06/30 03:08:24;;;;;;;13.82;8.18;;;;;;;18.35;94.58;100872.72;4903742;29;20383;-72
2022/06/30 03:10:49;;;;;;;13.98;8.27;;;;;;;18.22;95.19;100879.59;4915627;29;20428;-74
2022/06/30 03:13:15;;;;;;;14.00;8.40;;;;;;;18.35;94.87;100880.13;4899004;29;20039;-75
2022/06/30 03:15:40;;;;;;;11.05;7.80;;;;;;;18.24;95.67;100871.94;4898348;29;20048;-74
2022/06/30 03:18:05;;;;;;;10.23;7.68;;;;;;;18.28;96.55;100872.19;4894115;29;20046;-73
2022/06/30 03:20:30;;;;;;;9.73;8.00;;;;;;;18.27;95.95;100867.81;4894807;29;20029;-72
2022/06/30 03:22:56;;;;;;;11.57;7.85;;;;;;;18.26;95.97;100873.56;4893517;29;20029;-73
2022/06/30 03:25:21;;;;;;;11.52;7.97;;;;;;;18.22;96.07;100868.66;4893657;29;20032;-74
2022/06/30 03:27:47;;;;;;;9.60;8.10;;;;;;;18.19;95.87;100869.22;4880307;29;20033;-76
2022/06/30 03:30:12;;;;;;;11.23;7.68;;;;;;;18.22;96.28;100870.56;4880235;29;20504;-73
2022/06/30 03:32:37;;;;;;;10.32;8.23;;;;;;;18.20;95.58;100870.81;4881730;29;20032;-75
2022/06/30 03:35:04;;;;;;;11.00;8.15;;;;;;;18.11;95.56;100864.28;4880238;29;20464;-73
2022/06/30 03:37:29;;;;;;;10.00;8.18;;;;;;;18.15;95.41;100870.84;4881725;29;20113;-74
2022/06/30 03:39:55;;;;;;;13.52;8.70;;;;;;;18.00;95.80;100865.38;4881326;29;20029;-75
2022/06/30 03:42:20;;;;;;;14.13;8.30;;;;;;;18.06;97.08;100867.84;4881537;29;20037;-75
2022/06/30 03:44:45;;;;;;;10.25;8.20;;;;;;;18.05;97.74;100862.63;4880730;29;20090;-72
2022/06/30 03:47:10;;;;;;;11.93;8.30;;;;;;;18.03;97.21;100864.84;4910041;29;20047;-73
2022/06/30 03:49:36;;;;;;;10.45;7.80;;;;;;;18.06;98.68;100864.28;4901982;29;20512;-72
2022/06/30 03:52:01;;;;;;;10.10;7.85;;;;;;;18.00;98.85;100857.97;4918632;29;20040;-74
2022/06/30 03:54:27;;;;;;;10.48;8.00;;;;;;;18.06;98.15;100856.88;4917649;29;20456;-74
2022/06/30 03:56:53;;;;;;;9.05;7.60;;;;;;;17.96;99.19;100853.34;4918659;29;20084;-73
2022/06/30 03:59:18;;;;;;;14.15;8.30;;;;;;;17.96;100.00;100850.59;4901893;29;20032;-72
2022/06/30 04:01:43;;;;;;;9.27;8.10;;;;;;;18.00;98.47;100849.75;4916790;29;20067;-75
2022/06/30 04:04:09;;;;;;;9.65;7.80;;;;;;;18.06;98.23;100856.88;4898910;29;20053;-72
2022/06/30 04:06:34;;;;;;;10.23;7.85;;;;;;;17.98;98.57;100857.44;4899316;29;20063;-72
2022/06/30 04:08:59;;;;;;;12.63;8.15;;;;;;;18.05;98.36;100846.19;4898832;29;20048;-72
2022/06/30 04:11:25;;;;;;;12.40;7.70;;;;;;;18.09;99.46;100852.78;4900031;29;20127;-71
2022/06/30 04:13:50;;;;;;;12.68;8.18;;;;;;;18.11;98.40;100850.56;4899567;29;20037;-74
2022/06/30 04:16:15;;;;;;;9.95;8.23;;;;;;;18.12;98.54;100849.50;4899964;29;20111;-74
2022/06/30 04:18:41;;;;;;;11.20;8.20;;;;;;;18.17;98.72;100854.94;4898385;29;20032;-74
2022/06/30 04:21:06;;;;;;;11.85;8.15;;;;;;;18.22;96.80;100868.66;4899270;29;20040;-75
2022/06/30 04:23:31;;;;;;;10.75;7.82;;;;;;;18.22;94.51;100876.03;4899549;29;20036;-72
2022/06/30 04:25:57;;;;;;;12.85;8.35;;;;;;;18.20;96.76;100865.34;4899243;29;20040;-74
2022/06/30 04:28:22;;;;;;;12.85;7.95;;;;;;;18.23;92.86;100875.75;4887608;29;20047;-74
2022/06/30 04:33:31;;;;;;;12.68;8.02;;;;;;;18.27;91.65;100880.69;4918307;29;20043;-76
2022/06/30 04:35:56;;;;;;;14.00;7.97;;;;;;;18.30;90.65;100885.59;4918031;29;20032;-74
2022/06/30 04:38:22;;;;;;;14.07;8.13;;;;;;;18.29;89.82;100925.88;4917263;29;20032;-74
2022/06/30 04:43:31;;;;;;;15.70;9.63;;;;;;;18.16;92.62;100894.41;4918181;29;20051;-73
2022/06/30 04:45:56;;;;;;;18.88;10.48;;;;;;;18.11;94.11;100929.19;4917686;29;20024;-73
2022/06/30 04:48:21;;;;;;;13.57;10.15;;;;;;;18.04;94.47;100896.56;4918283;29;20043;-74
2022/06/30 04:50:47;;;;;;;16.00;10.90;;;;;;;17.94;96.36;100910.28;4914072;29;20055;-73
2022/06/30 04:53:12;;;;;;;19.58;12.18;;;;;;;17.84;98.14;100933.75;4913821;29;20372;-76
2022/06/30 04:55:39;;;;;;;15.88;12.63;;;;;;;17.74;100.00;100911.88;4899277;29;20480;-73
2022/06/30 04:58:05;;;;;;;17.33;12.15;;;;;;;17.73;100.00;100928.56;4898663;29;20150;-74
2022/06/30 05:00:30;;;;;;;18.60;13.25;;;;;;;17.66;100.00;100926.09;4906139;29;20491;-74
2022/06/30 05:02:56;;;;;;;20.45;14.10;;;;;;;17.64;100.00;100920.06;4897877;29;20048;-76
2022/06/30 05:05:21;;;;;;;18.70;14.70;;;;;;;17.59;100.00;100925.50;4881833;29;20185;-73
2022/06/30 05:07:46;;;;;;;18.20;14.30;;;;;;;17.58;100.00;100918.41;4898751;29;20036;-72
2022/06/30 05:10:12;;;;;;;25.23;15.20;;;;;;;17.57;100.00;100911.28;4898523;29;20286;-72
2022/06/30 05:12:37;;;;;;;20.25;15.15;;;;;;;17.67;100.00;100916.78;4897353;29;20033;-77
2022/06/30 05:15:03;;;;;;;19.85;16.40;;;;;;;17.68;100.00;100918.44;4897138;29;20051;-76
2022/06/30 05:17:28;;;;;;;20.27;16.40;;;;;;;17.65;100.00;100905.31;4898571;29;20039;-76
2022/06/30 05:19:53;;;;;;;22.77;16.80;;;;;;;17.63;100.00;100916.50;4887740;29;20036;-77
2022/06/30 05:22:19;;;;;;;22.83;16.15;;;;;;;17.65;100.00;100916.25;4917140;29;20024;-75
2022/06/30 05:27:31;;;;;;;22.50;17.95;;;;;;;17.70;100.00;100916.25;4917173;29;20063;-74
2022/06/30 05:29:56;;;;;;;22.00;17.13;;;;;;;17.65;100.00;100903.38;4899262;29;20044;-75
2022/06/30 05:32:21;;;;;;;23.35;17.30;;;;;;;17.70;100.00;100908.03;4917228;29;20045;-74
2022/06/30 05:34:47;;;;;;;22.67;17.80;;;;;;;17.68;100.00;100910.22;4917174;29;20039;-76
2022/06/30 05:37:13;;;;;;;21.65;16.13;;;;;;;17.76;100.00;100923.38;4917194;29;20486;-77
2022/06/30 05:39:38;;;;;;;22.73;16.05;;;;;;;17.73;100.00;100921.16;4917169;29;20135;-75
2022/06/30 05:42:04;;;;;;;19.60;15.02;;;;;;;17.76;100.00;100926.09;4903798;29;20040;-74
2022/06/30 05:44:30;;;;;;;16.58;14.25;;;;;;;17.80;100.00;100921.75;4898411;29;20032;-73
2022/06/30 05:46:55;;;;;;;16.67;13.07;;;;;;;17.83;100.00;100926.66;4897750;29;20115;-74
2022/06/30 05:49:25;;;;;;;16.75;12.38;;;;;;;17.82;98.51;100929.69;4897505;29;20032;-72
2022/06/30 05:51:51;;;;;;;15.65;11.90;;;;;;;17.83;98.70;100925.81;4897702;29;20032;-76
2022/06/30 05:54:16;;;;;;;15.30;11.63;;;;;;;17.91;98.30;100925.34;4897741;29;20536;-74
2022/06/30 05:56:41;;;;;;;15.60;11.65;;;;;;;17.91;96.38;100927.25;4897755;29;20113;-74
2022/06/30 05:59:07;;;;;;;19.13;11.27;;;;;;;17.94;98.45;100926.72;4897357;29;20135;-72
2022/06/30 06:01:32;;;;;;;15.68;10.63;;;;;;;17.96;96.12;100924.50;4887053;29;20493;-73
2022/06/30 06:03:57;;;;;;;14.80;10.82;;;;;;;17.99;95.40;100927.53;4883140;29;20032;-76
2022/06/30 06:06:23;;;;;;;16.55;10.25;;;;;;;17.99;94.86;100921.22;4897653;29;20116;-73
2022/06/30 06:08:48;;;;;;;14.77;9.95;;;;;;;17.97;95.77;100921.50;4896421;29;20064;-73
2022/06/30 06:11:13;;;;;;;13.45;10.13;;;;;;;17.95;97.05;100922.88;4880760;29;20384;-77
2022/06/30 06:13:39;;;;;;;14.32;10.07;;;;;;;17.98;97.34;100933.28;4897693;29;20032;-77
2022/06/30 06:16:04;;;;;;;17.92;10.25;;;;;;;17.96;96.87;100938.22;4896175;29;20077;-78
2022/06/30 06:18:30;;;;;;;16.88;9.73;;;;;;;17.96;97.99;100938.22;4894969;29;20037;-74
2022/06/30 06:20:55;;;;;;;14.30;10.07;;;;;;;17.93;99.63;100936.00;4901841;29;20032;-73
2022/06/30 06:23:20;;;;;;;18.08;10.98;;;;;;;17.94;100.00;100937.66;4916585;29;20562;-73
2022/06/30 06:25:45;;;;;;;13.00;9.98;;;;;;;17.96;100.00;100939.00;4896263;29;20040;-74
2022/06/30 06:30:54;;;;;;;16.27;10.15;;;;;;;18.02;100.00;100948.06;4916115;29;20103;-73
2022/06/30 06:33:20;;;;;;;20.73;10.35;;;;;;;18.11;100.00;100943.69;4916108;29;20028;-76
2022/06/30 06:35:45;;;;;;;17.25;9.85;;;;;;;18.05;100.00;100945.59;4916080;29;20032;-72
2022/06/30 06:38:10;;;;;;;14.32;9.35;;;;;;;18.06;100.00;100947.25;4899079;29;20472;-71
2022/06/30 06:40:36;;;;;;;17.05;9.70;;;;;;;18.11;100.00;100951.91;4916220;29;20159;-72
2022/06/30 06:43:01;;;;;;;19.70;9.85;;;;;;;18.14;99.92;100950.53;4916340;29;20119;-74
2022/06/30 06:45:26;;;;;;;17.92;10.18;;;;;;;18.12;100.00;100953.56;4915892;29;20036;-75
2022/06/30 06:47:52;;;;;;;16.90;9.85;;;;;;;18.17;100.00;100958.22;4914292;29;20036;-71
2022/06/30 06:50:17;;;;;;;18.98;10.00;;;;;;;18.24;100.00;100958.75;4896351;29;20044;-71
2022/06/30 06:52:42;;;;;;;16.98;10.07;;;;;;;18.25;99.51;100954.91;4897241;29;20048;-72
2022/06/30 06:55:08;;;;;;;19.45;10.25;;;;;;;18.24;100.00;100964.25;4896831;29;20039;-72
2022/06/30 06:57:40;;;;;;;15.35;8.80;;;;;;;18.30;100.00;100967.78;4897210;29;20040;-71
2022/06/30 07:00:07;;;;;;;16.13;9.77;;;;;;;18.36;100.00;100964.78;4890378;29;20387;-73
2022/06/30 07:02:32;;;;;;;15.18;9.93;;;;;;;18.36;97.61;100963.97;4899922;29;20060;-74
2022/06/30 07:04:58;;;;;;;18.05;9.73;;;;;;;18.39;100.00;100971.63;4900433;29;20476;-74
2022/06/30 07:07:23;;;;;;;18.77;9.65;;;;;;;18.44;100.00;100979.03;4900996;29;20041;-72
2022/06/30 07:09:48;;;;;;;19.60;9.43;;;;;;;18.51;100.00;100977.66;4901198;29;20040;-72
2022/06/30 07:12:14;;;;;;;14.77;8.73;;;;;;;18.62;97.43;100991.34;4898808;29;20072;-70
2022/06/30 07:14:39;;;;;;;18.70;9.20;;;;;;;18.65;97.65;100999.03;4900487;29;20116;-75
2022/06/30 07:17:04;;;;;;;17.40;9.40;;;;;;;18.71;96.86;100998.72;4900482;29;20024;-72
2022/06/30 07:19:30;;;;;;;17.58;8.57;;;;;;;18.72;94.99;101007.75;4883549;29;20480;-74
2022/06/30 07:21:55;;;;;;;20.25;8.52;;;;;;;18.72;94.78;101016.00;4899408;29;20032;-71
2022/06/30 07:24:20;;;;;;;16.25;8.77;;;;;;;18.75;93.83;101012.69;4900329;29;20037;-72
2022/06/30 07:26:45;;;;;;;16.17;7.75;;;;;;;18.82;94.11;101010.50;4883552;29;20108;-70
2022/06/30 07:29:11;;;;;;;15.27;7.93;;;;;;;18.88;92.67;101001.19;4899960;29;20036;-72
2022/06/30 07:31:36;;;;;;;17.08;7.57;;;;;;;18.92;92.85;101001.47;4900483;29;20107;-74
2022/06/30 07:34:01;;;;;;;20.75;7.22;;;;;;;19.07;92.13;100997.88;4908956;29;20168;-74
2022/06/30 07:36:27;;;;;;;15.07;6.85;;;;;;;19.11;89.26;100999.78;4919159;29;20358;-71
2022/06/30 07:38:52;;;;;;;16.35;7.35;;;;;;;19.15;87.93;100994.56;4917900;29;20535;-74
2022/06/30 07:41:18;;;;;;;13.00;6.32;;;;;;;19.17;87.61;100986.84;4918970;29;20056;-73
2022/06/30 07:43:43;;;;;;;15.80;6.22;;;;;;;19.28;88.28;100993.16;4901786;29;20431;-74
2022/06/30 07:46:09;;;;;;;13.40;6.18;;;;;;;19.42;87.79;100996.09;4918755;29;20076;-75
2022/06/30 07:48:35;;;;;;;18.42;6.60;;;;;;;19.50;85.58;101003.75;4902123;29;20035;-74
2022/06/30 07:51:00;;;;;;;14.18;6.40;;;;;;;19.57;85.58;100992.47;4901833;29;20028;-73
2022/06/30 07:53:25;;;;;;;11.15;5.78;;;;;;;19.64;84.08;101001.19;4918989;29;20100;-73
2022/06/30 07:55:51;;;;;;;14.52;5.80;;;;;;;19.70;83.71;101000.09;4910784;29;20107;-74
2022/06/30 07:58:16;;;;;;;14.68;6.30;;;;;;;19.78;83.09;101001.47;4915756;29;20085;-74
2022/06/30 08:00:41;;;;;;;13.15;6.18;;;;;;;19.83;81.66;100993.19;4913879;29;20024;-72
2022/06/30 08:03:07;;;;;;;14.57;5.63;;;;;;;19.90;81.55;100987.34;4899524;29;20340;-75
2022/06/30 08:05:32;;;;;;;11.27;5.32;;;;;;;19.94;77.44;100993.94;4899490;29;20101;-74
2022/06/30 08:07:57;;;;;;;12.52;4.90;;;;;;;19.97;76.39;100990.59;4883032;29;20549;-71
2022/06/30 08:10:23;;;;;;;10.43;4.90;;;;;;;19.94;75.79;100988.44;4899852;29;20036;-70
2022/06/30 08:12:48;;;;;;;13.52;5.20;;;;;;;19.92;76.48;100988.72;4899406;29;20481;-72
2022/06/30 08:15:13;;;;;;;10.18;5.03;;;;;;;19.91;75.93;100995.31;4899500;29;20124;-72
2022/06/30 08:17:39;;;;;;;8.32;4.95;;;;;;;20.00;77.41;100992.78;4907275;29;20040;-71
2022/06/30 08:20:05;;;;;;;12.65;5.30;;;;;;;20.13;77.21;100991.34;4918212;29;20067;-73
2022/06/30 08:22:30;;;;;;;12.70;5.70;;;;;;;20.18;75.49;100994.03;4918175;29;20080;-74
2022/06/30 08:24:58;;;;;;;12.52;5.05;;;;;;;20.29;75.87;100997.53;4918320;29;20031;-72
2022/06/30 08:27:24;;;;;;;11.35;4.53;;;;;;;20.27;74.34;101000.56;4917854;29;20417;-74
2022/06/30 08:29:49;;;;;;;15.32;4.85;;;;;;;20.36;74.98;101000.78;4917955;29;20059;-71
2022/06/30 08:32:14;;;;;;;12.45;4.85;;;;;;;20.44;74.70;101002.06;4901025;29;20134;-74
2022/06/30 08:34:41;;;;;;;13.98;4.80;;;;;;;20.52;74.88;101009.72;4916655;29;20060;-73
2022/06/30 08:37:07;;;;;;;10.60;4.85;;;;;;;20.58;73.36;100997.56;4917874;29;20043;-73
2022/06/30 08:42:20;;;;;;;11.20;4.60;;;;;;;20.69;72.93;101004.63;4917940;29;20103;-73
2022/06/30 08:45:13;;;;;;;10.07;4.75;;;;;;;20.75;72.89;101007.34;4918087;29;20550;-74
2022/06/30 08:47:34;;;;;;;15.75;4.68;;;;;;;20.80;73.57;101007.28;4917494;29;20059;-76
2022/06/30 08:49:59;;;;;;;14.07;5.32;;;;;;;20.74;71.94;101003.75;4918005;29;20028;-71
2022/06/30 08:52:28;;;;;;;16.40;5.10;;;;;;;20.73;72.99;100991.13;4899197;29;20123;-71
2022/06/30 08:54:54;;;;;;;13.25;4.97;;;;;;;20.73;72.73;100998.53;4880275;29;20041;-71
2022/06/30 08:57:20;;;;;;;15.20;5.05;;;;;;;20.85;73.79;101007.25;4880105;29;20534;-74
2022/06/30 08:59:45;;;;;;;13.57;4.68;;;;;;;20.92;74.52;101007.69;4880205;29;20037;-75
2022/06/30 09:02:11;;;;;;;12.18;4.20;;;;;;;21.02;73.95;101007.59;4888632;29;20048;-72
2022/06/30 09:04:36;;;;;;;9.05;4.28;;;;;;;21.04;70.67;101016.38;4898756;29;20131;-72
2022/06/30 09:07:02;;;;;;;9.77;4.47;;;;;;;20.99;70.03;101002.69;4898695;29;20043;-72
2022/06/30 09:09:27;;;;;;;9.85;3.97;;;;;;;21.12;71.26;101012.19;4897164;29;20516;-71
2022/06/30 09:11:55;;;;;;;10.35;4.30;;;;;;;21.06;69.09;101010.56;4881856;29;20033;-71
2022/06/30 09:14:38;;;;;;;14.15;4.30;;;;;;;21.19;71.35;101009.06;4898618;29;20487;-70
2022/06/30 09:17:09;;;;;;;12.25;4.10;;;;;;;21.17;70.62;101014.06;4879827;29;20044;-72
2022/06/30 09:19:40;;;;;;;11.90;4.00;;;;;;;21.17;68.87;101011.31;4879916;29;20112;-72
2022/06/30 09:22:08;;;;;;;7.72;3.30;;;;;;;21.15;67.08;101016.25;4879641;29;20040;-70
2022/06/30 09:24:34;;;;;;;9.10;3.70;;;;;;;21.09;67.75;101014.69;4879389;29;20430;-72
2022/06/30 09:27:16;;;;;;;14.45;3.80;;;;;;;21.15;68.42;101008.00;4879747;29;20033;-74
2022/06/30 09:30:04;;;;;;;15.40;4.10;;;;;;;21.32;68.47;101010.31;4879227;29;20451;-74
2022/06/30 09:32:31;;;;;;;11.02;4.03;;;;;;;21.33;66.87;101012.78;4878310;29;20085;-72
2022/06/30 09:35:09;;;;;;;6.20;3.50;;;;;;;21.36;67.59;101012.19;4879899;29;20511;-74
2022/06/30 09:37:34;;;;;;;9.70;3.50;;;;;;;21.49;67.19;101023.59;4885422;29;20036;-71
2022/06/30 09:40:00;;;;;;;7.82;3.60;;;;;;;21.49;66.20;101020.84;4896895;29;20039;-75
2022/06/30 09:42:39;;;;;;;12.65;4.28;;;;;;;21.48;67.35;101020.00;4897924;29;20127;-75
2022/06/30 09:45:07;;;;;;;13.02;4.07;;;;;;;21.52;66.37;101021.09;4898089;29;20037;-73
2022/06/30 09:47:33;;;;;;;10.50;3.95;;;;;;;21.56;65.94;101022.13;4898247;29;20028;-72
2022/06/30 09:50:05;;;;;;;8.70;3.40;;;;;;;21.60;65.53;101019.59;4898014;29;20033;-71
2022/06/30 09:52:31;;;;;;;8.32;3.15;;;;;;;21.60;67.00;101022.34;4897721;29;20025;-74
2022/06/30 09:55:08;;;;;;;8.80;3.42;;;;;;;21.57;64.82;101017.44;4897859;29;20029;-73
2022/06/30 09:57:45;;;;;;;9.82;3.45;;;;;;;21.70;65.06;101021.41;4895916;29;20059;-72
2022/06/30 10:00:17;;;;;;;6.15;3.42;;;;;;;21.76;64.90;101015.53;4897585;29;20493;-73
2022/06/30 10:02:46;;;;;;;9.68;3.65;;;;;;;21.96;64.38;101021.88;4891565;29;20396;-71
2022/06/30 10:05:13;;;;;;;9.70;3.67;;;;;;;22.05;63.35;101028.34;4880594;29;20469;-72
2022/06/30 10:07:39;;;;;;;9.25;3.80;;;;;;;22.12;63.13;101017.78;4880926;29;20037;-72
2022/06/30 10:10:10;;;;;;;13.02;3.70;;;;;;;22.15;63.19;101032.91;4897814;29;20147;-71
2022/06/30 10:12:36;;;;;;;8.20;3.10;;;;;;;22.33;64.31;101030.44;4903438;29;20039;-75
2022/06/30 10:15:03;;;;;;;11.38;3.38;;;;;;;22.40;64.22;101028.94;4916613;29;20123;-71
2022/06/30 10:17:40;;;;;;;8.52;3.33;;;;;;;22.41;63.26;101024.25;4899236;29;20043;-74
2022/06/30 10:20:06;;;;;;;6.15;3.17;;;;;;;22.39;62.42;101029.22;4916530;29;20147;-74
2022/06/30 10:22:32;;;;;;;10.77;3.17;;;;;;;22.34;62.74;101021.88;4916170;29;20136;-72
2022/06/30 10:24:58;;;;;;;8.65;3.70;;;;;;;22.35;62.57;101017.19;4916447;29;20024;-73
2022/06/30 10:27:26;;;;;;;7.45;3.03;;;;;;;22.40;61.90;101012.38;4914749;29;20158;-70
2022/06/30 10:30:21;;;;;;;10.23;3.25;;;;;;;22.44;61.96;101010.66;4914696;29;20484;-70
2022/06/30 10:33:17;;;;;;;12.70;2.97;;;;;;;22.52;64.07;101014.69;4895474;29;20052;-72
2022/06/30 10:35:48;;;;;;;10.25;3.30;;;;;;;22.44;62.59;101018.94;4897509;29;20044;-72
2022/06/30 10:38:29;;;;;;;10.00;3.60;;;;;;;22.40;62.28;101011.59;4900670;29;20063;-73
2022/06/30 10:41:10;;;;;;;8.32;3.20;;;;;;;22.53;63.55;101019.09;4901468;29;20032;-74
2022/06/30 10:44:04;;;;;;;9.57;3.25;;;;;;;22.58;63.05;101027.25;4901349;29;20037;-72
2022/06/30 10:46:56;;;;;;;11.75;3.50;;;;;;;22.53;62.29;101010.00;4884068;29;20043;-71
2022/06/30 10:49:27;;;;;;;7.25;2.92;;;;;;;22.77;62.98;101015.38;4912947;29;20035;-72
2022/06/30 10:52:16;;;;;;;6.03;2.90;;;;;;;22.81;60.77;101008.94;4918991;29;20041;-73
2022/06/30 10:54:45;;;;;;;7.15;3.00;;;;;;;22.87;60.35;101009.63;4920112;29;20156;-72
2022/06/30 10:57:12;;;;;;;7.55;2.83;;;;;;;22.93;61.72;100997.41;4919880;29;20052;-73
2022/06/30 10:59:42;;;;;;;6.63;2.42;;;;;;;22.91;61.38;101002.41;4917845;29;20032;-73
2022/06/30 11:02:14;;;;;;;8.45;2.35;;;;;;;23.03;62.07;101003.84;4904506;29;20064;-76
2022/06/30 11:04:41;;;;;;;8.55;2.60;;;;;;;23.01;62.19;101010.50;4900792;29;20400;-73
2022/06/30 11:07:18;;;;;;;7.00;2.63;;;;;;;23.00;61.67;101014.38;4900691;29;20044;-72
2022/06/30 11:09:43;;;;;;;9.57;2.95;;;;;;;22.93;59.97;101013.13;4901107;29;20036;-71
2022/06/30 11:12:08;;;;;;;8.70;2.60;;;;;;;22.88;60.45;101014.03;4900574;29;20035;-73
2022/06/30 11:14:33;;;;;;;8.98;3.03;;;;;;;22.90;60.42;101002.72;4900800;29;20040;-72
2022/06/30 11:17:11;;;;;;;11.18;3.40;;;;;;;22.86;59.52;101008.03;4900695;29;20028;-72
2022/06/30 11:19:37;;;;;;;9.45;2.90;;;;;;;22.92;61.87;101008.75;4908920;29;20040;-74
2022/06/30 11:22:03;;;;;;;7.97;2.70;;;;;;;22.97;61.94;101003.13;4919584;29;20047;-74
2022/06/30 11:24:30;;;;;;;11.93;3.05;;;;;;;23.01;61.72;100998.66;4919343;29;20111;-71
2022/06/30 11:29:40;;;;;;;7.72;2.70;;;;;;;23.13;61.63;100998.97;4918914;29;20064;-72
2022/06/30 11:32:06;;;;;;;12.05;2.90;;;;;;;23.08;62.25;100995.47;4919426;29;20036;-74
2022/06/30 11:34:36;;;;;;;6.72;2.92;;;;;;;22.97;61.45;100990.13;4918927;29;20126;-73
2022/06/30 11:37:01;;;;;;;6.75;2.95;;;;;;;22.91;61.95;100985.03;4919205;29;20196;-73